Time;durP1;ratioP1;P1;durP2;ratioP2;P2;SDS_P1;SDS_P2;PMS_P1;PMS_P2;Temp;Humidity;BMP_temperature;BMP_pressure;BME280_temperature;BME280_humidity;BME280_pressure;Samples;Min_cycle;Max_cycle;Signal;HPM_P1;HPM_P2
2022/09/10 00:00:18;;;;;;;13.30;10.60;;;;;;;12.55;86.70;100116.12;106322;1270;96445;-68
2022/09/10 00:03:10;;;;;;;13.40;11.50;;;;;;;12.50;86.73;100114.44;107612;1271;140111;-68
2022/09/10 00:05:45;;;;;;;13.40;11.70;;;;;;;12.47;86.95;100111.23;107834;1270;111139;-68
2022/09/10 00:08:18;;;;;;;14.00;11.80;;;;;;;12.46;86.92;100112.70;106659;1270;138523;-67
2022/09/10 00:10:52;;;;;;;13.00;10.70;;;;;;;12.44;87.12;100109.96;106241;1271;111294;-68
2022/09/10 00:13:24;;;;;;;14.90;11.10;;;;;;;12.41;87.15;100107.31;106181;1270;139345;-68
2022/09/10 00:15:56;;;;;;;12.90;10.60;;;;;;;12.38;87.17;100110.56;106347;1270;96859;-68
2022/09/10 00:18:28;;;;;;;13.40;10.40;;;;;;;12.35;87.26;100096.73;106300;1270;111409;-68
2022/09/10 00:21:04;;;;;;;12.10;9.50;;;;;;;12.32;87.33;100096.34;106184;1270;139666;-68
2022/09/10 00:23:36;;;;;;;13.20;9.40;;;;;;;12.28;87.10;100091.11;106245;1270;108630;-68
2022/09/10 00:26:14;;;;;;;13.10;10.20;;;;;;;12.26;87.28;100088.42;106181;1270;138876;-68
2022/09/10 00:28:47;;;;;;;12.00;9.60;;;;;;;12.25;87.30;100086.04;106251;1270;96462;-68
2022/09/10 00:31:20;;;;;;;13.10;10.60;;;;;;;12.24;87.50;100082.94;106205;1270;139557;-68
2022/09/10 00:33:53;;;;;;;12.80;10.60;;;;;;;12.23;87.68;100081.92;106287;1270;108787;-68
2022/09/10 00:36:27;;;;;;;13.10;10.40;;;;;;;12.21;87.63;100079.04;106274;1270;108961;-67
2022/09/10 00:39:02;;;;;;;13.70;10.90;;;;;;;12.19;87.63;100077.70;106183;1270;138659;-67
2022/09/10 00:41:36;;;;;;;13.90;11.10;;;;;;;12.18;87.69;100074.45;106854;1270;96506;-67
2022/09/10 00:44:24;;;;;;;14.50;10.80;;;;;;;12.18;87.74;100071.14;106149;1270;138381;-67
2022/09/10 00:46:58;;;;;;;12.30;10.50;;;;;;;12.17;87.81;100067.52;106263;1270;109171;-67
2022/09/10 00:49:37;;;;;;;12.00;10.10;;;;;;;12.14;87.71;100071.99;106094;1270;138707;-67
2022/09/10 00:52:11;;;;;;;13.40;10.70;;;;;;;12.15;87.78;100075.30;106266;1270;96511;-67
2022/09/10 00:54:44;;;;;;;13.10;10.90;;;;;;;12.15;87.67;100078.77;107851;1270;94872;-68
2022/09/10 00:57:20;;;;;;;13.80;11.40;;;;;;;12.11;87.52;100081.02;106964;1270;138401;-68
2022/09/10 00:59:58;;;;;;;13.20;11.10;;;;;;;12.07;87.63;100079.28;106221;1270;108901;-68
2022/09/10 01:02:30;;;;;;;15.60;11.70;;;;;;;12.04;87.76;100078.85;106432;1270;139150;-68
2022/09/10 01:05:04;;;;;;;16.10;12.20;;;;;;;12.04;87.85;100079.94;106270;1270;96510;-68
2022/09/10 01:07:36;;;;;;;15.10;11.90;;;;;;;12.01;87.80;100076.33;107627;1270;138505;-68
2022/09/10 01:10:11;;;;;;;15.20;12.50;;;;;;;12.02;87.87;100072.13;107738;1270;111318;-69
2022/09/10 01:13:12;;;;;;;15.10;12.00;;;;;;;12.03;88.08;100070.36;107720;1271;108876;-70
2022/09/10 01:15:52;;;;;;;16.00;12.50;;;;;;;12.05;88.09;100066.10;106674;1270;109404;-69
2022/09/10 01:18:33;;;;;;;14.80;12.00;;;;;;;12.06;88.13;100059.98;105074;1270;1528724;-68
2022/09/10 01:21:15;;;;;;;16.20;12.60;;;;;;;12.08;88.13;100054.30;107748;1270;140087;-69
2022/09/10 01:24:26;;;;;;;14.90;11.70;;;;;;;12.08;88.24;100050.26;107791;1270;110044;-70
2022/09/10 01:27:29;;;;;;;14.00;12.20;;;;;;;12.11;88.13;100054.00;106783;1271;139326;-69
2022/09/10 01:30:07;;;;;;;14.20;11.40;;;;;;;12.13;88.22;100048.86;107805;1270;108397;-69
2022/09/10 01:33:06;;;;;;;15.60;11.80;;;;;;;12.14;88.10;100049.00;107675;1270;139706;-70
2022/09/10 01:35:46;;;;;;;14.40;11.20;;;;;;;12.13;87.87;100045.73;107657;1273;94571;-70
2022/09/10 01:38:22;;;;;;;15.80;11.70;;;;;;;12.13;87.93;100044.54;107611;1270;138314;-70
2022/09/10 01:40:56;;;;;;;14.20;11.80;;;;;;;12.14;88.05;100044.96;107844;1270;107903;-70
2022/09/10 01:43:30;;;;;;;15.10;12.20;;;;;;;12.15;87.84;100041.29;107709;1270;139495;-70
2022/09/10 01:46:18;;;;;;;15.50;12.60;;;;;;;12.17;87.95;100042.79;107682;1270;95036;-70
2022/09/10 01:49:07;;;;;;;13.40;11.40;;;;;;;12.19;87.87;100045.10;107785;1270;95187;-70
2022/09/10 01:52:01;;;;;;;12.60;11.30;;;;;;;12.22;87.71;100041.54;106962;1271;110105;-70
2022/09/10 01:54:47;;;;;;;12.40;10.90;;;;;;;12.24;87.74;100031.83;106160;1270;108972;-70
2022/09/10 01:57:32;;;;;;;11.50;9.40;;;;;;;12.27;87.68;100023.33;106115;1270;139667;-70
2022/09/10 02:00:09;;;;;;;12.40;9.90;;;;;;;12.31;87.46;100024.55;106398;1271;96494;-70
2022/09/10 02:02:48;;;;;;;12.80;9.80;;;;;;;12.35;87.21;100024.20;106071;1270;138301;-69
2022/09/10 02:05:23;;;;;;;12.70;10.20;;;;;;;12.39;87.15;100024.22;106144;1271;111154;-70
2022/09/10 02:08:02;;;;;;;12.60;10.10;;;;;;;12.42;87.11;100022.90;106143;1270;138675;-69
2022/09/10 02:10:35;;;;;;;16.40;10.50;;;;;;;12.44;87.03;100023.31;106083;1271;109102;-69
2022/09/10 02:13:11;;;;;;;13.30;10.60;;;;;;;12.46;86.95;100023.25;106197;1270;96476;-69
2022/09/10 02:15:56;;;;;;;14.60;10.20;;;;;;;12.46;86.64;100024.09;106188;1270;97032;-69
2022/09/10 02:18:31;;;;;;;14.60;11.40;;;;;;;12.45;86.60;100016.15;106181;1270;111435;-69
2022/09/10 02:21:05;;;;;;;12.50;10.20;;;;;;;12.43;86.43;100016.22;106138;1270;138691;-70
2022/09/10 02:23:44;;;;;;;16.30;11.30;;;;;;;12.38;86.50;100011.52;106301;1270;108973;-70
2022/09/10 02:26:18;;;;;;;15.20;11.20;;;;;;;12.34;86.47;100010.13;106189;1270;138756;-70
2022/09/10 02:28:50;;;;;;;16.30;11.20;;;;;;;12.33;86.49;100008.98;107731;1270;94695;-70
2022/09/10 02:31:22;;;;;;;15.60;10.60;;;;;;;12.30;86.57;100007.17;107285;1270;139783;-69
2022/09/10 02:33:55;;;;;;;14.40;10.70;;;;;;;12.28;86.54;100006.21;106266;1270;108821;-71
2022/09/10 02:36:28;;;;;;;17.50;11.90;;;;;;;12.29;86.76;100006.71;106074;1270;109504;-69
2022/09/10 02:39:02;;;;;;;15.40;10.90;;;;;;;12.29;86.74;100004.45;106010;1272;138603;-70
2022/09/10 02:41:35;;;;;;;15.50;11.80;;;;;;;12.28;86.64;100002.55;106164;1271;96589;-69
2022/09/10 02:44:07;;;;;;;14.40;10.50;;;;;;;12.27;86.68;99997.89;106057;1271;138903;-69
2022/09/10 02:46:41;;;;;;;16.90;11.00;;;;;;;12.28;86.72;99997.17;106916;1270;108793;-70
2022/09/10 02:49:13;;;;;;;15.40;11.10;;;;;;;12.27;86.56;99996.31;107848;1270;108839;-70
2022/09/10 02:51:45;;;;;;;16.00;11.60;;;;;;;12.28;86.66;99999.05;107677;1271;94756;-70
2022/09/10 02:54:18;;;;;;;16.60;11.00;;;;;;;12.27;86.34;99994.39;107741;1270;96145;-69
2022/09/10 02:56:50;;;;;;;15.90;11.10;;;;;;;12.26;86.16;99995.69;107597;1270;140132;-70
2022/09/10 02:59:22;;;;;;;14.80;10.90;;;;;;;12.25;86.25;99992.05;107692;1273;108876;-69
2022/09/10 03:01:55;;;;;;;15.10;11.10;;;;;;;12.24;86.11;99988.45;107712;1270;139466;-70
2022/09/10 03:04:27;;;;;;;16.70;11.60;;;;;;;12.21;85.97;99992.20;107805;1270;94713;-70
2022/09/10 03:06:59;;;;;;;16.50;12.00;;;;;;;12.20;85.99;99993.47;106648;1270;96483;-70
2022/09/10 03:09:30;;;;;;;18.30;13.00;;;;;;;12.20;86.13;99991.73;106163;1271;138264;-71
2022/09/10 03:12:04;;;;;;;15.60;11.70;;;;;;;12.20;86.10;99985.81;106205;1270;108883;-71
2022/09/10 03:14:36;;;;;;;17.60;12.40;;;;;;;12.18;86.04;99989.02;105977;1270;138374;-71
2022/09/10 03:17:08;;;;;;;17.20;12.60;;;;;;;12.16;86.19;99986.36;106091;1271;96552;-71
2022/09/10 03:19:40;;;;;;;18.20;12.90;;;;;;;12.13;86.30;99984.37;106013;1270;138581;-71
2022/09/10 03:22:12;;;;;;;17.80;12.50;;;;;;;12.12;86.19;99981.29;106155;1270;111068;-71
2022/09/10 03:24:46;;;;;;;19.10;12.80;;;;;;;12.10;86.29;99985.00;106249;1272;107945;-71
2022/09/10 03:27:19;;;;;;;15.40;11.90;;;;;;;12.10;86.49;99990.23;106060;1270;138429;-71
2022/09/10 03:29:51;;;;;;;17.50;12.50;;;;;;;12.05;86.41;99986.27;107737;1270;94891;-72
2022/09/10 03:32:23;;;;;;;17.50;13.40;;;;;;;12.00;86.42;99987.86;107628;1270;138959;-72
2022/09/10 03:34:55;;;;;;;17.10;13.00;;;;;;;11.96;86.38;99993.30;107795;1270;110756;-72
2022/09/10 03:37:27;;;;;;;17.60;13.60;;;;;;;11.95;86.64;99993.85;107750;1270;138520;-72
2022/09/10 03:39:59;;;;;;;21.00;14.30;;;;;;;11.94;86.52;99994.25;107840;1270;108741;-72
2022/09/10 03:42:31;;;;;;;18.50;14.50;;;;;;;11.95;86.60;99992.81;107803;1270;94924;-71
2022/09/10 03:45:03;;;;;;;19.00;13.70;;;;;;;11.96;86.76;99993.61;105987;1273;138533;-71
2022/09/10 03:47:37;;;;;;;19.70;14.40;;;;;;;11.95;86.69;99992.79;106069;1273;111094;-70
2022/09/10 03:50:10;;;;;;;17.80;13.60;;;;;;;11.94;86.71;99992.84;106030;1271;138704;-70
2022/09/10 03:52:42;;;;;;;21.00;14.10;;;;;;;11.92;86.79;99996.60;106068;1273;107591;-70
2022/09/10 03:55:14;;;;;;;20.60;14.20;;;;;;;11.89;86.72;99998.98;106167;1272;96585;-70
2022/09/10 03:57:48;;;;;;;17.50;12.90;;;;;;;11.88;86.94;100000.45;106154;1273;96380;-70
2022/09/10 04:00:20;;;;;;;19.40;13.70;;;;;;;11.86;86.97;99999.64;106149;1271;111289;-70
2022/09/10 04:02:52;;;;;;;18.60;13.80;;;;;;;11.83;87.10;100008.80;106055;1271;138407;-70
2022/09/10 04:05:26;;;;;;;19.00;13.30;;;;;;;11.82;87.12;100010.78;106099;1273;106773;-70
2022/09/10 04:07:58;;;;;;;20.00;13.50;;;;;;;11.83;87.22;100008.11;106429;1273;138847;-70
2022/09/10 04:10:31;;;;;;;17.40;13.20;;;;;;;11.83;87.33;100007.92;106219;1273;96397;-71
2022/09/10 04:13:03;;;;;;;17.20;13.30;;;;;;;11.83;87.46;100002.17;106138;1273;111091;-71
2022/09/10 04:15:37;;;;;;;16.10;12.40;;;;;;;11.84;87.39;99999.33;106082;1271;138432;-71
2022/09/10 04:18:10;;;;;;;15.70;12.30;;;;;;;11.84;87.54;99999.34;106144;1273;108187;-71
2022/09/10 04:20:45;;;;;;;16.70;12.30;;;;;;;11.83;87.55;100004.08;106259;1271;138906;-71
2022/09/10 04:23:18;;;;;;;18.70;12.90;;;;;;;11.83;87.49;100002.88;106182;1271;96378;-71
2022/09/10 04:25:51;;;;;;;16.40;12.80;;;;;;;11.78;87.50;99992.95;106004;1271;138607;-71
2022/09/10 04:28:23;;;;;;;17.80;13.80;;;;;;;11.73;87.47;99982.54;106269;1271;108737;-71
2022/09/10 04:30:55;;;;;;;17.00;13.30;;;;;;;11.70;87.66;99973.46;106133;1271;108061;-71
2022/09/10 04:33:29;;;;;;;18.30;14.10;;;;;;;11.66;87.82;99970.27;106089;1270;138851;-71
2022/09/10 04:36:00;;;;;;;14.60;12.80;;;;;;;11.64;87.92;99970.36;106204;1270;96376;-71
2022/09/10 04:38:38;;;;;;;15.30;13.10;;;;;;;11.62;88.04;99964.00;106277;1270;138705;-71
2022/09/10 04:41:14;;;;;;;15.60;13.30;;;;;;;11.60;88.02;99962.89;106186;1270;108916;-71
2022/09/10 04:43:47;;;;;;;15.50;13.60;;;;;;;11.58;87.97;99961.92;106120;1270;138530;-71
2022/09/10 04:46:19;;;;;;;15.80;13.50;;;;;;;11.57;88.10;99960.02;106177;1271;96561;-71
2022/09/10 04:48:54;;;;;;;18.10;14.20;;;;;;;11.58;88.10;99954.23;106144;1271;96992;-71
2022/09/10 04:51:27;;;;;;;16.90;13.90;;;;;;;11.62;88.20;99946.95;106058;1270;138177;-71
2022/09/10 04:54:00;;;;;;;15.00;13.10;;;;;;;11.64;88.10;99944.07;106143;1270;107774;-71
2022/09/10 04:56:38;;;;;;;15.10;13.50;;;;;;;11.64;88.09;99948.22;106089;1270;138732;-71
2022/09/10 04:59:10;;;;;;;15.70;13.20;;;;;;;11.63;88.10;99952.29;106185;1270;98068;-71
2022/09/10 05:01:43;;;;;;;18.60;13.90;;;;;;;11.61;87.92;99954.64;106118;1270;138402;-71
2022/09/10 05:04:15;;;;;;;18.80;14.90;;;;;;;11.61;88.09;99961.26;106132;1270;110561;-71
2022/09/10 05:06:49;;;;;;;17.50;15.00;;;;;;;11.61;88.18;99959.49;106132;1271;108893;-71
2022/09/10 05:09:21;;;;;;;18.00;15.00;;;;;;;11.63;88.20;99948.30;106077;1271;141586;-71
2022/09/10 05:11:53;;;;;;;22.00;16.00;;;;;;;11.65;88.25;99932.53;106083;1270;96487;-71
2022/09/10 05:14:25;;;;;;;19.40;16.80;;;;;;;11.67;88.35;99922.53;106081;1270;138223;-71
2022/09/10 05:16:58;;;;;;;19.00;15.90;;;;;;;11.71;88.34;99922.55;106169;1271;110096;-71
2022/09/10 05:19:33;;;;;;;25.10;19.10;;;;;;;11.75;88.33;99931.93;106083;1270;140271;-71
2022/09/10 05:22:09;;;;;;;23.50;18.40;;;;;;;11.78;88.38;99932.69;106208;1270;108987;-71
2022/09/10 05:24:42;;;;;;;24.80;19.90;;;;;;;11.80;88.39;99934.02;106218;1270;96649;-72
2022/09/10 05:27:15;;;;;;;23.80;18.40;;;;;;;11.82;88.30;99936.02;106078;1271;138290;-71
2022/09/10 05:29:48;;;;;;;20.60;16.10;;;;;;;11.84;88.24;99943.60;106170;1270;110121;-72
2022/09/10 05:32:20;;;;;;;21.50;16.50;;;;;;;11.87;88.14;99946.30;106071;1270;138393;-71
2022/09/10 05:34:52;;;;;;;21.70;17.30;;;;;;;11.88;87.96;99949.21;106197;1270;109196;-71
2022/09/10 05:37:25;;;;;;;24.50;18.20;;;;;;;11.87;87.77;99951.15;106118;1270;139345;-71
2022/09/10 05:39:58;;;;;;;23.90;18.50;;;;;;;11.87;87.68;99946.30;106146;1270;96601;-72
2022/09/10 05:42:31;;;;;;;19.50;16.30;;;;;;;11.87;87.75;99941.60;106197;1270;110186;-71
2022/09/10 05:45:03;;;;;;;15.80;13.70;;;;;;;11.88;87.70;99942.41;106107;1271;138847;-72
2022/09/10 05:47:38;;;;;;;14.50;11.90;;;;;;;11.89;87.70;99945.33;106214;1270;108576;-70
2022/09/10 05:50:11;;;;;;;13.90;11.50;;;;;;;11.90;87.75;99941.63;106013;1270;138290;-72
2022/09/10 05:52:43;;;;;;;13.50;11.40;;;;;;;11.88;87.59;99935.11;106198;1270;96567;-72
2022/09/10 05:55:15;;;;;;;13.50;10.30;;;;;;;11.85;87.53;99927.22;106137;1270;111079;-71
2022/09/10 05:57:47;;;;;;;13.30;10.70;;;;;;;11.82;87.73;99921.59;106184;1270;108800;-70
2022/09/10 06:00:23;;;;;;;10.80;9.50;;;;;;;11.81;87.67;99916.38;106163;1271;109145;-71
2022/09/10 06:03:00;;;;;;;14.70;11.70;;;;;;;11.83;87.75;99915.96;106052;1271;138315;-71
2022/09/10 06:05:43;;;;;;;13.10;10.60;;;;;;;11.85;87.86;99914.48;106226;1270;96527;-71
2022/09/10 06:08:15;;;;;;;15.20;10.60;;;;;;;11.89;87.89;99912.58;106070;1270;138546;-70
2022/09/10 06:10:59;;;;;;;11.60;10.30;;;;;;;11.91;87.85;99917.02;106249;1270;108763;-71
2022/09/10 06:13:34;;;;;;;13.40;10.40;;;;;;;11.93;87.69;99922.85;106129;1270;138974;-70
2022/09/10 06:16:07;;;;;;;11.40;9.70;;;;;;;11.94;87.76;99920.89;106224;1272;96486;-71
2022/09/10 06:18:39;;;;;;;11.50;9.50;;;;;;;11.92;87.35;99918.16;106799;1270;97074;-72
2022/09/10 06:21:16;;;;;;;10.60;9.00;;;;;;;11.95;87.42;99920.34;106106;1271;138029;-71
2022/09/10 06:23:54;;;;;;;13.30;10.00;;;;;;;11.96;87.27;99922.21;106186;1270;109296;-72
2022/09/10 06:26:28;;;;;;;13.70;10.50;;;;;;;11.96;87.21;99916.60;106058;1270;138356;-71
2022/09/10 06:29:04;;;;;;;15.00;11.20;;;;;;;11.98;87.33;99915.14;106123;1273;96582;-71
2022/09/10 06:31:37;;;;;;;16.60;12.20;;;;;;;12.02;87.42;99911.80;106078;1271;138352;-71
2022/09/10 06:34:10;;;;;;;19.30;14.20;;;;;;;12.07;87.25;99907.61;106202;1271;111072;-71
2022/09/10 06:36:42;;;;;;;20.10;14.60;;;;;;;12.11;87.29;99903.23;106083;1273;108974;-70
2022/09/10 06:39:15;;;;;;;19.80;15.40;;;;;;;12.17;87.10;99902.30;106118;1270;138512;-72
2022/09/10 06:41:53;;;;;;;18.10;15.50;;;;;;;12.20;87.01;99899.38;106171;1270;96492;-71
2022/09/10 06:44:47;;;;;;;22.50;17.20;;;;;;;12.20;86.80;99897.09;106123;1270;138777;-72
2022/09/10 06:47:47;;;;;;;25.80;17.90;;;;;;;12.22;86.96;99894.08;106196;1271;109876;-71
2022/09/10 06:50:53;;;;;;;26.70;19.00;;;;;;;12.24;86.89;99887.86;106056;1273;138444;-71
2022/09/10 06:53:32;;;;;;;21.10;17.40;;;;;;;12.27;86.90;99887.92;107707;1271;109049;-72
2022/09/10 06:56:07;;;;;;;24.00;18.40;;;;;;;12.29;86.72;99886.95;107591;1271;139147;-72
2022/09/10 06:58:40;;;;;;;19.40;15.40;;;;;;;12.31;86.61;99882.64;107744;1271;95214;-72
2022/09/10 07:01:16;;;;;;;17.70;13.70;;;;;;;12.31;86.47;99886.13;107259;1271;110161;-72
2022/09/10 07:03:56;;;;;;;17.10;14.00;;;;;;;12.31;86.36;99889.09;106138;1273;109785;-71
2022/09/10 07:06:32;;;;;;;18.40;14.50;;;;;;;12.33;86.35;99890.95;106076;1271;107785;-72
2022/09/10 07:49:46;;;;;;;23.40;17.10;;;;;;;12.19;86.05;99924.33;105890;1260;138631;-70
2022/09/10 07:52:18;;;;;;;24.50;17.60;;;;;;;12.19;85.99;99921.17;105942;1274;96495;-70
2022/09/10 07:54:54;;;;;;;23.30;18.00;;;;;;;12.22;85.97;99921.94;106109;1273;96554;-70
2022/09/10 07:57:27;;;;;;;22.00;18.10;;;;;;;12.25;86.03;99925.13;105954;1273;139918;-70
2022/09/10 08:00:00;;;;;;;17.50;14.40;;;;;;;12.28;86.00;99923.95;106021;1273;108084;-70
2022/09/10 08:02:46;;;;;;;13.60;11.00;;;;;;;12.31;85.98;99929.21;105911;1273;138317;-70
2022/09/10 08:05:22;;;;;;;15.20;11.90;;;;;;;12.32;85.87;99928.81;105970;1274;96868;-70
2022/09/10 08:07:55;;;;;;;15.50;11.50;;;;;;;12.32;85.70;99930.71;105950;1273;138431;-71
2022/09/10 08:10:30;;;;;;;12.90;10.70;;;;;;;12.33;85.74;99930.85;107628;1273;111323;-71
2022/09/10 08:13:02;;;;;;;12.60;11.20;;;;;;;12.33;85.67;99932.05;107634;1271;109039;-71
2022/09/10 08:15:35;;;;;;;13.90;10.10;;;;;;;12.36;85.60;99929.86;107417;1273;138462;-72
2022/09/10 08:18:07;;;;;;;12.40;10.00;;;;;;;12.37;85.60;99930.13;106085;1273;97295;-70
2022/09/10 08:20:40;;;;;;;11.90;9.90;;;;;;;12.40;85.49;99928.64;105823;1274;138241;-71
2022/09/10 08:23:13;;;;;;;11.70;9.90;;;;;;;12.42;85.51;99925.05;105907;1274;111132;-70
2022/09/10 08:25:52;;;;;;;14.90;10.40;;;;;;;12.46;85.50;99926.11;105963;1273;138438;-70
2022/09/10 08:28:24;;;;;;;13.20;9.70;;;;;;;12.49;85.27;99926.80;106004;1273;108867;-70
2022/09/10 08:31:03;;;;;;;13.50;10.50;;;;;;;12.50;85.13;99922.39;106096;1273;96502;-70
2022/09/10 08:33:37;;;;;;;12.00;9.90;;;;;;;12.53;85.05;99927.00;105917;1273;138307;-70
2022/09/10 08:36:12;;;;;;;14.10;10.70;;;;;;;12.55;84.93;99924.42;106473;1273;111340;-71
2022/09/10 08:38:45;;;;;;;12.00;10.00;;;;;;;12.58;85.02;99926.92;105933;1273;138338;-69
2022/09/10 08:41:31;;;;;;;13.70;10.50;;;;;;;12.61;84.94;99923.13;106041;1273;107906;-70
2022/09/10 08:44:07;;;;;;;11.90;9.60;;;;;;;12.64;84.91;99928.05;107512;1273;139378;-70
2022/09/10 08:46:47;;;;;;;12.00;10.00;;;;;;;12.65;84.52;99923.14;107588;1273;94703;-70
2022/09/10 08:49:25;;;;;;;11.20;9.50;;;;;;;12.66;84.46;99919.23;107580;1273;109935;-70
2022/09/10 08:52:01;;;;;;;12.40;9.60;;;;;;;12.68;84.43;99918.95;107551;1274;109201;-71
2022/09/10 08:54:38;;;;;;;13.10;9.70;;;;;;;12.69;84.40;99922.58;107566;1274;109091;-70
2022/09/10 08:57:26;;;;;;;12.20;9.90;;;;;;;12.71;84.14;99923.90;107361;1276;138399;-71
2022/09/10 09:00:01;;;;;;;12.80;10.20;;;;;;;12.73;84.06;99920.83;105973;1276;96603;-71
2022/09/10 09:02:45;;;;;;;12.50;10.30;;;;;;;12.77;84.00;99915.45;105921;1276;138271;-70
2022/09/10 09:05:24;;;;;;;14.90;10.00;;;;;;;12.78;83.74;99918.55;106002;1274;108835;-71
2022/09/10 09:07:58;;;;;;;11.70;9.40;;;;;;;12.79;83.88;99920.78;106338;1274;139867;-71
2022/09/10 09:10:41;;;;;;;11.60;9.90;;;;;;;12.83;83.92;99920.55;107481;1275;95217;-72
2022/09/10 09:13:32;;;;;;;11.10;9.90;;;;;;;12.86;83.97;99927.56;107585;1274;94587;-71
2022/09/10 09:16:18;;;;;;;14.30;10.70;;;;;;;12.89;83.66;99927.60;107439;1275;111817;-72
2022/09/10 09:19:05;;;;;;;12.60;10.40;;;;;;;12.91;83.69;99926.98;107598;1274;109043;-72
2022/09/10 09:21:48;;;;;;;13.90;10.70;;;;;;;12.94;83.74;99932.94;107422;1274;138835;-72
2022/09/10 09:24:24;;;;;;;12.70;10.30;;;;;;;12.96;83.53;99933.06;107563;1274;94982;-72
2022/09/10 09:27:08;;;;;;;14.30;11.30;;;;;;;12.99;83.44;99937.29;107344;1276;138963;-72
2022/09/10 09:29:47;;;;;;;14.30;11.00;;;;;;;13.01;83.34;99932.81;107601;1274;110555;-71
2022/09/10 09:32:22;;;;;;;14.50;11.10;;;;;;;13.04;83.37;99933.02;107454;1274;138767;-71
2022/09/10 09:34:57;;;;;;;13.00;11.30;;;;;;;13.05;83.10;99928.08;106590;1274;108088;-71
2022/09/10 09:37:33;;;;;;;16.80;12.40;;;;;;;13.05;82.88;99920.21;105784;1275;139883;-71
2022/09/10 09:40:14;;;;;;;15.50;12.80;;;;;;;13.02;82.69;99914.61;106055;1275;96602;-71
2022/09/10 09:42:52;;;;;;;15.80;12.60;;;;;;;12.99;82.67;99916.31;106350;1275;111099;-71
2022/09/10 09:45:35;;;;;;;14.10;12.60;;;;;;;13.02;82.76;99917.91;105929;1274;138584;-70
2022/09/10 09:48:11;;;;;;;16.00;13.20;;;;;;;13.04;83.01;99913.09;107039;1276;107819;-71
2022/09/10 09:50:47;;;;;;;16.10;13.50;;;;;;;13.06;82.95;99908.48;107336;1274;138564;-70
2022/09/10 09:53:24;;;;;;;13.50;11.80;;;;;;;13.13;82.94;99904.50;107579;1274;94785;-71
2022/09/10 09:55:57;;;;;;;15.50;13.30;;;;;;;13.19;82.71;99907.02;107489;1274;138965;-71
2022/09/10 09:58:33;;;;;;;14.00;12.00;;;;;;;13.22;82.43;99906.70;106045;1274;107893;-71
2022/09/10 10:01:13;;;;;;;16.70;12.00;;;;;;;13.25;82.58;99905.64;106045;1274;108830;-71
2022/09/10 10:03:57;;;;;;;17.50;12.80;;;;;;;13.32;82.49;99896.79;105912;1274;138275;-71
2022/09/10 10:06:31;;;;;;;17.00;12.60;;;;;;;13.38;82.40;99889.67;106044;1274;96504;-71
2022/09/10 10:09:06;;;;;;;17.00;13.70;;;;;;;13.45;82.35;99886.88;105904;1274;138206;-71
2022/09/10 10:11:46;;;;;;;16.70;12.80;;;;;;;13.51;82.43;99889.38;106015;1274;107886;-71
2022/09/10 10:14:34;;;;;;;15.50;13.10;;;;;;;13.58;82.37;99894.08;106486;1274;138398;-71
2022/09/10 10:17:28;;;;;;;16.60;12.70;;;;;;;13.65;81.93;99900.02;106024;1276;96923;-72
2022/09/10 10:20:04;;;;;;;13.80;12.20;;;;;;;13.69;81.78;99897.70;105868;1273;138473;-71
2022/09/10 10:22:38;;;;;;;15.70;12.60;;;;;;;13.74;81.48;99898.36;105949;1274;110117;-70
2022/09/10 10:25:35;;;;;;;15.10;12.80;;;;;;;13.79;81.41;99893.89;106073;1274;109271;-70
2022/09/10 10:28:16;;;;;;;16.80;13.50;;;;;;;13.82;81.11;99886.03;105995;1274;107979;-71
2022/09/10 10:30:53;;;;;;;15.00;12.30;;;;;;;13.85;81.09;99878.54;106023;1274;96506;-70
2022/09/10 10:33:32;;;;;;;15.60;12.80;;;;;;;13.91;81.29;99874.38;107478;1274;138144;-71
2022/09/10 10:36:12;;;;;;;17.00;13.10;;;;;;;13.97;81.43;99871.11;107602;1274;110061;-71
2022/09/10 10:38:51;;;;;;;17.50;14.80;;;;;;;14.04;81.59;99861.67;107420;1274;138399;-71
2022/09/10 10:41:52;;;;;;;16.60;13.30;;;;;;;14.13;81.63;99849.64;107566;1274;108975;-72
2022/09/10 10:44:39;;;;;;;20.30;15.10;;;;;;;14.23;81.50;99849.80;107418;1274;139092;-74
2022/09/10 10:47:27;;;;;;;18.30;15.40;;;;;;;14.32;81.37;99849.52;107568;1274;94385;-73
2022/09/10 10:50:08;;;;;;;17.70;15.80;;;;;;;14.37;80.78;99849.41;107481;1273;139683;-71
2022/09/10 10:52:54;;;;;;;20.90;16.10;;;;;;;14.41;80.53;99851.97;106168;1273;107888;-72
2022/09/10 10:55:31;;;;;;;20.20;17.20;;;;;;;14.45;80.34;99857.36;107481;1273;139340;-72
2022/09/10 10:58:31;;;;;;;18.60;16.60;;;;;;;14.49;80.14;99856.98;107593;1273;94970;-72
2022/09/10 11:01:13;;;;;;;21.60;16.30;;;;;;;14.53;79.56;99861.17;106074;1273;96605;-72
2022/09/10 11:03:53;;;;;;;17.00;14.80;;;;;;;14.54;79.47;99861.48;105965;1274;138160;-71
2022/09/10 11:06:30;;;;;;;15.90;13.60;;;;;;;14.56;79.01;99858.05;106075;1272;107720;-70
2022/09/10 11:09:08;;;;;;;14.50;12.80;;;;;;;14.56;79.04;99849.98;105953;1274;140472;-72
2022/09/10 11:11:48;;;;;;;14.20;12.70;;;;;;;14.58;79.20;99842.71;106032;1273;96590;-73
2022/09/10 11:14:27;;;;;;;16.30;14.40;;;;;;;14.60;79.12;99836.29;105914;1273;138235;-74
2022/09/10 11:17:04;;;;;;;15.50;13.40;;;;;;;14.63;78.92;99835.75;105961;1274;111114;-74
2022/09/10 11:19:42;;;;;;;15.20;13.60;;;;;;;14.65;78.84;99844.41;105897;1274;138587;-84
2022/09/10 11:22:19;;;;;;;14.10;12.40;;;;;;;14.67;78.63;99849.55;105996;1274;108875;-79
2022/09/10 11:24:57;;;;;;;15.10;12.70;;;;;;;14.67;78.36;99850.06;106073;1273;96617;-79
2022/09/10 11:27:34;;;;;;;12.90;11.60;;;;;;;14.68;78.25;99851.73;105903;1274;139604;-79
2022/09/10 11:30:10;;;;;;;14.50;11.90;;;;;;;14.70;78.23;99850.78;105976;1274;111286;-80
2022/09/10 11:32:46;;;;;;;14.10;12.70;;;;;;;14.72;78.12;99850.66;105935;1274;139564;-78
2022/09/10 11:35:26;;;;;;;14.20;12.20;;;;;;;14.74;78.09;99849.89;106012;1274;108905;-78
2022/09/10 11:38:06;;;;;;;13.90;12.20;;;;;;;14.74;77.84;99844.45;106079;1273;138533;-77
2022/09/10 11:40:43;;;;;;;14.20;12.30;;;;;;;14.74;77.67;99839.34;106004;1274;96495;-75
2022/09/10 11:43:33;;;;;;;13.50;12.10;;;;;;;14.77;77.77;99835.88;106107;1273;111146;-73
2022/09/10 11:46:11;;;;;;;14.20;12.30;;;;;;;14.78;77.52;99836.82;106083;1273;108858;-71
2022/09/10 11:48:49;;;;;;;12.70;11.40;;;;;;;14.78;77.39;99832.34;106007;1273;107557;-74
2022/09/10 11:51:29;;;;;;;13.50;12.10;;;;;;;14.78;77.47;99833.69;105908;1273;138708;-75
2022/09/10 11:54:03;;;;;;;12.90;11.50;;;;;;;14.78;77.30;99838.05;107559;1274;94770;-75
2022/09/10 11:56:59;;;;;;;13.00;11.50;;;;;;;14.77;77.32;99832.55;107450;1273;139038;-74
2022/09/10 12:00:01;;;;;;;14.40;10.90;;;;;;;14.76;77.25;99827.16;106006;1274;109337;-76
2022/09/10 12:03:03;;;;;;;13.30;11.30;;;;;;;14.79;77.66;99826.11;105920;1274;138348;-76
2022/09/10 12:05:45;;;;;;;15.20;10.80;;;;;;;14.81;77.33;99821.80;106022;1274;96600;-77
2022/09/10 12:08:31;;;;;;;13.10;11.70;;;;;;;14.84;77.27;99815.54;106024;1274;138473;-78
2022/09/10 12:11:14;;;;;;;12.10;10.80;;;;;;;14.87;77.14;99813.41;106027;1274;109609;-78
2022/09/10 12:13:48;;;;;;;24.20;10.80;;;;;;;14.90;77.01;99813.61;105803;1276;139063;-81
2022/09/10 12:16:31;;;;;;;20.30;10.60;;;;;;;14.94;76.93;99811.40;106059;1274;108952;-76
2022/09/10 12:19:09;;;;;;;12.10;10.00;;;;;;;15.00;76.52;99809.70;106091;1274;96474;-81
2022/09/10 12:21:47;;;;;;;15.70;10.30;;;;;;;15.04;76.44;99807.72;105976;1274;138032;-76
2022/09/10 12:24:31;;;;;;;11.20;9.70;;;;;;;15.07;76.28;99803.29;106091;1274;111044;-79
2022/09/10 12:27:04;;;;;;;10.00;9.00;;;;;;;15.09;76.22;99795.71;105966;1274;139248;-79